Time;durP1;ratioP1;P1;durP2;ratioP2;P2;SDS_P1;SDS_P2;PMS_P1;PMS_P2;Temp;Humidity;BMP_temperature;BMP_pressure;BME280_temperature;BME280_humidity;BME280_pressure;Samples;Min_cycle;Max_cycle;Signal;HPM_P1;HPM_P2
2022/09/03 00:00:13;;;;;;;1.30;0.80;;;;;;;;;;5062076;28;20032;-81
2022/09/03 00:02:58;;;;;;;1.73;0.60;;;;;;;;;;5067627;28;20048;-81
2022/09/03 00:05:35;;;;;;;0.80;0.70;;;;;;;;;;5054509;28;20082;-81
2022/09/03 00:08:14;;;;;;;0.70;0.70;;;;;;;;;;5059154;28;20020;-81
2022/09/03 00:10:51;;;;;;;0.50;0.50;;;;;;;;;;5063954;28;20025;-81
2022/09/03 00:13:26;;;;;;;0.73;0.70;;;;;;;;;;5057136;28;20033;-81
2022/09/03 00:15:55;;;;;;;0.70;0.60;;;;;;;;;;5061592;28;20059;-81
2022/09/03 00:18:23;;;;;;;1.00;0.73;;;;;;;;;;5048706;28;20033;-81
2022/09/03 00:20:57;;;;;;;0.50;0.50;;;;;;;;;;5056265;28;20033;-81
2022/09/03 00:23:24;;;;;;;0.88;0.70;;;;;;;;;;5049454;28;20029;-81
2022/09/03 00:25:53;;;;;;;0.43;0.43;;;;;;;;;;5050922;28;20479;-81
2022/09/03 00:28:25;;;;;;;1.52;1.05;;;;;;;;;;5051941;28;20370;-80
2022/09/03 00:30:56;;;;;;;0.70;0.50;;;;;;;;;;5063338;28;20501;-81
2022/09/03 00:33:24;;;;;;;0.77;0.70;;;;;;;;;;5061301;28;20035;-81
2022/09/03 00:35:54;;;;;;;0.75;0.65;;;;;;;;;;5066046;28;20077;-81
2022/09/03 00:38:21;;;;;;;0.70;0.65;;;;;;;;;;5054137;28;20033;-81
2022/09/03 00:40:47;;;;;;;0.68;0.68;;;;;;;;;;5067101;28;20035;-81
2022/09/03 00:43:13;;;;;;;1.40;0.80;;;;;;;;;;5053257;28;20028;-81
2022/09/03 00:45:42;;;;;;;0.90;0.43;;;;;;;;;;5062537;28;20039;-81
2022/09/03 00:48:17;;;;;;;1.52;0.47;;;;;;;;;;5052749;28;20024;-81
2022/09/03 00:51:01;;;;;;;0.85;0.45;;;;;;;;;;5055502;28;20678;-80
2022/09/03 00:53:32;;;;;;;0.70;0.70;;;;;;;;;;5061633;28;20527;-81
2022/09/03 00:56:15;;;;;;;0.47;0.47;;;;;;;;;;5058854;28;20033;-82
2022/09/03 00:58:55;;;;;;;3.50;0.75;;;;;;;;;;5065842;28;20029;-81
2022/09/03 01:01:22;;;;;;;0.50;0.50;;;;;;;;;;5051893;28;20035;-81
2022/09/03 01:03:57;;;;;;;0.85;0.65;;;;;;;;;;5063490;28;20024;-81
2022/09/03 01:06:45;;;;;;;0.40;0.40;;;;;;;;;;5050996;28;20158;-81
2022/09/03 01:09:23;;;;;;;0.63;0.57;;;;;;;;;;5046020;28;20032;-81
2022/09/03 01:11:58;;;;;;;0.45;0.45;;;;;;;;;;5053194;28;20060;-81
2022/09/03 01:14:33;;;;;;;0.85;0.50;;;;;;;;;;5060612;28;20386;-81
2022/09/03 01:17:12;;;;;;;0.50;0.50;;;;;;;;;;5055944;28;20029;-81
2022/09/03 01:19:57;;;;;;;1.35;0.80;;;;;;;;;;5055031;28;20069;-81
2022/09/03 01:22:29;;;;;;;0.55;0.55;;;;;;;;;;5063238;28;20024;-81
2022/09/03 01:25:14;;;;;;;0.50;0.50;;;;;;;;;;5059950;28;20052;-81
2022/09/03 01:27:58;;;;;;;0.70;0.55;;;;;;;;;;5059263;28;20032;-81
2022/09/03 01:30:24;;;;;;;0.95;0.70;;;;;;;;;;5051500;28;20059;-81
2022/09/03 01:33:08;;;;;;;0.50;0.47;;;;;;;;;;5060222;28;20100;-81
2022/09/03 01:35:42;;;;;;;0.80;0.65;;;;;;;;;;5052873;28;20041;-81
2022/09/03 01:38:26;;;;;;;0.70;0.63;;;;;;;;;;5054315;28;20028;-81
2022/09/03 01:42:12;;;;;;;0.50;0.50;;;;;;;;;;5058737;28;20102;-81
2022/09/03 01:43:57;;;;;;;0.50;0.50;;;;;;;;;;5053726;28;20037;-81
2022/09/03 01:46:28;;;;;;;0.55;0.55;;;;;;;;;;5058506;28;20032;-81
2022/09/03 01:49:06;;;;;;;0.47;0.47;;;;;;;;;;5052071;28;20032;-81
2022/09/03 01:51:32;;;;;;;0.82;0.70;;;;;;;;;;5053280;28;20510;-81
2022/09/03 01:54:19;;;;;;;1.73;0.63;;;;;;;;;;5056286;28;20068;-81
2022/09/03 01:56:45;;;;;;;0.98;0.57;;;;;;;;;;5053602;28;20442;-81
2022/09/03 01:59:20;;;;;;;1.42;0.50;;;;;;;;;;5055876;28;20024;-81
2022/09/03 02:01:50;;;;;;;0.38;0.38;;;;;;;;;;5056797;28;20021;-80
2022/09/03 02:04:18;;;;;;;1.30;0.90;;;;;;;;;;5058865;28;20111;-81
2022/09/03 02:06:45;;;;;;;0.52;0.52;;;;;;;;;;5052673;28;20021;-81
2022/09/03 02:09:11;;;;;;;1.02;0.65;;;;;;;;;;5063124;28;20036;-81
2022/09/03 02:11:38;;;;;;;0.80;0.65;;;;;;;;;;5048322;28;20108;-81
2022/09/03 02:14:04;;;;;;;6.18;0.55;;;;;;;;;;5066288;28;20503;-81
2022/09/03 02:16:33;;;;;;;0.55;0.55;;;;;;;;;;5063264;28;20028;-81
2022/09/03 02:19:01;;;;;;;0.57;0.57;;;;;;;;;;5064062;28;20386;-81
2022/09/03 02:21:31;;;;;;;1.08;0.70;;;;;;;;;;5059693;28;20097;-81
2022/09/03 02:23:57;;;;;;;0.50;0.50;;;;;;;;;;5067865;28;20032;-81
2022/09/03 02:26:24;;;;;;;1.38;0.90;;;;;;;;;;5058543;28;20076;-81
2022/09/03 02:28:51;;;;;;;0.50;0.50;;;;;;;;;;5065730;28;20040;-81
2022/09/03 02:31:17;;;;;;;1.00;0.90;;;;;;;;;;5050400;28;20036;-81
2022/09/03 02:33:44;;;;;;;1.38;0.80;;;;;;;;;;5054225;28;20028;-81
2022/09/03 02:36:23;;;;;;;1.88;0.65;;;;;;;;;;5073015;28;20602;-81
2022/09/03 02:38:52;;;;;;;2.58;0.50;;;;;;;;;;5080264;28;20013;-81
2022/09/03 02:41:19;;;;;;;0.68;0.63;;;;;;;;;;5084721;28;20036;-81
2022/09/03 02:43:55;;;;;;;0.73;0.60;;;;;;;;;;5062599;28;20265;-82
2022/09/03 02:46:26;;;;;;;0.73;0.57;;;;;;;;;;5063098;28;20024;-80
2022/09/03 02:48:52;;;;;;;;;;;;;;;;;;5063748;28;20029;-80
2022/09/03 02:51:18;;;;;;;1.17;0.68;;;;;;;;;;5054780;28;20501;-80
2022/09/03 02:53:45;;;;;;;1.77;0.80;;;;;;;;;;5050394;28;20117;-80
2022/09/03 02:56:11;;;;;;;1.48;0.73;;;;;;;;;;5062557;28;20115;-81
2022/09/03 02:58:37;;;;;;;4.60;0.60;;;;;;;;;;5058007;28;20098;-82
2022/09/03 03:01:03;;;;;;;1.27;1.10;;;;;;;;;;5063613;28;20029;-81
2022/09/03 03:03:29;;;;;;;1.35;0.70;;;;;;;;;;5056536;28;20029;-81
2022/09/03 03:05:56;;;;;;;0.55;0.47;;;;;;;;;;5058163;28;20113;-81
2022/09/03 03:08:24;;;;;;;1.05;0.70;;;;;;;;;;5066362;28;20032;-81
2022/09/03 03:10:55;;;;;;;0.45;0.45;;;;;;;;;;5063104;28;20028;-81
2022/09/03 03:13:21;;;;;;;0.82;0.77;;;;;;;;;;5057523;28;20103;-80
2022/09/03 03:15:48;;;;;;;1.13;0.80;;;;;;;;;;5054960;28;20029;-81
2022/09/03 03:18:14;;;;;;;0.73;0.73;;;;;;;;;;5055986;28;20029;-82
2022/09/03 03:20:40;;;;;;;1.30;1.20;;;;;;;;;;5063795;28;20024;-81
2022/09/03 03:23:07;;;;;;;0.70;0.70;;;;;;;;;;5065677;28;21501;-79
2022/09/03 03:25:37;;;;;;;1.15;0.98;;;;;;;;;;5053863;28;20039;-81
2022/09/03 03:28:03;;;;;;;0.60;0.60;;;;;;;;;;5060166;28;20095;-81
2022/09/03 03:30:30;;;;;;;1.70;1.38;;;;;;;;;;5060642;28;20066;-81
2022/09/03 03:32:57;;;;;;;1.20;0.73;;;;;;;;;;5062892;28;20021;-82
2022/09/03 03:35:23;;;;;;;0.70;0.70;;;;;;;;;;5064718;28;20029;-81
2022/09/03 03:37:49;;;;;;;1.42;0.95;;;;;;;;;;5051362;28;20039;-80
2022/09/03 03:40:15;;;;;;;1.65;1.00;;;;;;;;;;5052999;28;20058;-81
2022/09/03 03:42:41;;;;;;;0.85;0.85;;;;;;;;;;5054260;28;20037;-82
2022/09/03 03:45:08;;;;;;;0.77;0.75;;;;;;;;;;5058787;28;20335;-80
2022/09/03 03:47:34;;;;;;;0.80;0.75;;;;;;;;;;5052403;28;20016;-81
2022/09/03 03:50:00;;;;;;;0.70;0.68;;;;;;;;;;5053464;28;20087;-81
2022/09/03 03:52:27;;;;;;;1.20;0.73;;;;;;;;;;5055731;28;20036;-81
2022/09/03 03:54:53;;;;;;;8.50;0.80;;;;;;;;;;5052238;28;20040;-81
2022/09/03 03:57:20;;;;;;;0.75;0.60;;;;;;;;;;5057674;28;20037;-80
2022/09/03 03:59:46;;;;;;;0.85;0.80;;;;;;;;;;5063299;28;20032;-80
2022/09/03 04:02:18;;;;;;;1.38;0.80;;;;;;;;;;5057416;28;20116;-81
2022/09/03 04:04:45;;;;;;;0.65;0.65;;;;;;;;;;5062739;28;20029;-80
2022/09/03 04:07:11;;;;;;;1.35;0.88;;;;;;;;;;5049629;28;20090;-80
2022/09/03 04:09:37;;;;;;;1.80;1.00;;;;;;;;;;5060395;28;20041;-80
2022/09/03 04:12:07;;;;;;;0.93;0.90;;;;;;;;;;5056106;28;20032;-81
2022/09/03 04:14:34;;;;;;;1.30;0.90;;;;;;;;;;5060597;28;20040;-81
2022/09/03 04:17:09;;;;;;;0.75;0.70;;;;;;;;;;5061690;28;20107;-81
2022/09/03 04:19:35;;;;;;;0.93;0.88;;;;;;;;;;5054303;28;20388;-81
2022/09/03 04:22:02;;;;;;;1.00;0.90;;;;;;;;;;5063747;28;20016;-81
2022/09/03 04:24:28;;;;;;;2.22;1.17;;;;;;;;;;5057420;28;20051;-81
2022/09/03 04:26:54;;;;;;;4.10;1.13;;;;;;;;;;5061041;28;20043;-80
2022/09/03 04:29:20;;;;;;;0.82;0.70;;;;;;;;;;5061160;28;20124;-81
2022/09/03 04:34:31;;;;;;;1.63;1.20;;;;;;;;;;5058291;28;20052;-82
2022/09/03 04:36:57;;;;;;;2.05;1.13;;;;;;;;;;5060483;28;20457;-81
2022/09/03 04:39:24;;;;;;;1.20;0.70;;;;;;;;;;5063711;28;20021;-81
2022/09/03 04:41:50;;;;;;;1.13;1.02;;;;;;;;;;5058344;28;20020;-81
2022/09/03 04:44:16;;;;;;;1.00;0.90;;;;;;;;;;5052256;28;20094;-81
2022/09/03 04:46:42;;;;;;;1.45;1.10;;;;;;;;;;5059229;28;20028;-79
2022/09/03 04:49:08;;;;;;;1.13;0.88;;;;;;;;;;5050346;28;20025;-81
2022/09/03 04:51:36;;;;;;;1.00;0.85;;;;;;;;;;5056408;28;20506;-81
2022/09/03 04:54:02;;;;;;;1.10;0.98;;;;;;;;;;5052853;28;20484;-81
2022/09/03 04:56:29;;;;;;;0.95;0.77;;;;;;;;;;5052853;28;20089;-78
2022/09/03 04:58:56;;;;;;;0.88;0.80;;;;;;;;;;5048157;28;20035;-79
2022/09/03 05:01:23;;;;;;;2.08;1.10;;;;;;;;;;5049805;28;20500;-79
2022/09/03 05:03:51;;;;;;;1.70;1.05;;;;;;;;;;5058748;28;20041;-78
2022/09/03 05:06:17;;;;;;;1.13;0.88;;;;;;;;;;5064850;28;20087;-79
2022/09/03 05:08:44;;;;;;;1.20;1.10;;;;;;;;;;5060414;28;20393;-78
2022/09/03 05:11:10;;;;;;;1.42;0.95;;;;;;;;;;5055310;28;20025;-79
2022/09/03 05:13:36;;;;;;;1.08;0.77;;;;;;;;;;5057940;28;20491;-78
2022/09/03 05:16:05;;;;;;;1.48;0.80;;;;;;;;;;5048927;28;20041;-79
2022/09/03 05:18:31;;;;;;;1.40;0.80;;;;;;;;;;5052634;28;20032;-80
2022/09/03 05:21:00;;;;;;;1.58;0.90;;;;;;;;;;5049763;28;20020;-80
2022/09/03 05:23:29;;;;;;;1.25;1.00;;;;;;;;;;5058011;28;20559;-81
2022/09/03 05:25:57;;;;;;;0.82;0.70;;;;;;;;;;5061805;28;20032;-81
2022/09/03 05:28:23;;;;;;;0.60;0.60;;;;;;;;;;5060448;28;20040;-80
2022/09/03 05:30:57;;;;;;;1.58;0.98;;;;;;;;;;5049140;28;20029;-80
2022/09/03 05:33:23;;;;;;;1.05;0.90;;;;;;;;;;5048764;28;20113;-80
2022/09/03 05:35:49;;;;;;;1.02;0.93;;;;;;;;;;5060373;28;20029;-80
2022/09/03 05:38:16;;;;;;;0.93;0.90;;;;;;;;;;5066370;28;20103;-80
2022/09/03 05:40:43;;;;;;;1.40;0.90;;;;;;;;;;5053892;28;20036;-80
2022/09/03 05:43:09;;;;;;;4.72;0.77;;;;;;;;;;5062613;28;20108;-81
2022/09/03 05:45:35;;;;;;;2.65;0.98;;;;;;;;;;5055485;28;20744;-80
2022/09/03 05:48:02;;;;;;;1.35;1.08;;;;;;;;;;5065084;28;20535;-81
2022/09/03 05:50:28;;;;;;;0.85;0.77;;;;;;;;;;5055227;28;20037;-81
2022/09/03 05:52:54;;;;;;;0.82;0.68;;;;;;;;;;5056756;28;20027;-81
2022/09/03 05:55:19;;;;;;;3.05;1.02;;;;;;;;;;5056722;28;20032;-79
2022/09/03 05:57:51;;;;;;;0.70;0.70;;;;;;;;;;5063220;28;20460;-81
2022/09/03 06:00:18;;;;;;;1.98;0.82;;;;;;;;;;5062180;28;20060;-81
2022/09/03 06:02:49;;;;;;;1.33;0.93;;;;;;;;;;5055533;28;20072;-79
2022/09/03 06:05:15;;;;;;;0.85;0.77;;;;;;;;;;5070154;28;20654;-80
2022/09/03 06:07:41;;;;;;;1.92;1.05;;;;;;;;;;5066153;28;20087;-80
2022/09/03 06:10:08;;;;;;;0.93;0.80;;;;;;;;;;5051237;28;20029;-81
2022/09/03 06:12:34;;;;;;;1.05;0.90;;;;;;;;;;5056884;28;20451;-81
2022/09/03 06:15:04;;;;;;;1.15;0.77;;;;;;;;;;5060906;28;20512;-80
2022/09/03 06:17:33;;;;;;;1.10;0.95;;;;;;;;;;5058726;28;20039;-80
2022/09/03 06:19:59;;;;;;;2.60;0.82;;;;;;;;;;5059662;28;20033;-80
2022/09/03 06:22:27;;;;;;;0.90;0.90;;;;;;;;;;5066061;28;20032;-80
2022/09/03 06:24:53;;;;;;;0.55;0.55;;;;;;;;;;5060206;28;20032;-80
2022/09/03 06:27:20;;;;;;;0.93;0.82;;;;;;;;;;5066334;28;20224;-82
2022/09/03 06:29:46;;;;;;;1.58;1.10;;;;;;;;;;5059541;28;20558;-81
2022/09/03 06:32:12;;;;;;;1.98;1.02;;;;;;;;;;5061330;28;20017;-81
2022/09/03 06:34:38;;;;;;;3.15;1.05;;;;;;;;;;5062278;28;20023;-78
2022/09/03 06:37:07;;;;;;;0.88;0.77;;;;;;;;;;5063853;28;20384;-80
2022/09/03 06:39:33;;;;;;;1.40;0.88;;;;;;;;;;5064990;28;20485;-82
2022/09/03 06:42:35;;;;;;;1.17;1.00;;;;;;;;;;5058614;28;20032;-78
2022/09/03 06:45:01;;;;;;;1.17;0.95;;;;;;;;;;5061145;28;20040;-78
2022/09/03 06:47:28;;;;;;;0.70;0.70;;;;;;;;;;5066559;28;20052;-78
2022/09/03 06:49:53;;;;;;;0.85;0.60;;;;;;;;;;5065815;28;20031;-77
2022/09/03 06:52:19;;;;;;;0.70;0.70;;;;;;;;;;5060958;28;20021;-79
2022/09/03 06:54:46;;;;;;;1.67;0.70;;;;;;;;;;5061322;28;20028;-78
2022/09/03 06:57:12;;;;;;;5.45;1.17;;;;;;;;;;5050423;28;20070;-79
2022/09/03 06:59:38;;;;;;;0.85;0.73;;;;;;;;;;5054462;28;20033;-77
2022/09/03 07:02:05;;;;;;;0.85;0.70;;;;;;;;;;5050716;28;20029;-76
2022/09/03 07:04:33;;;;;;;0.40;0.40;;;;;;;;;;5052817;28;20036;-76
2022/09/03 07:06:59;;;;;;;1.00;0.65;;;;;;;;;;5059723;28;20433;-76
2022/09/03 07:09:25;;;;;;;2.47;0.80;;;;;;;;;;5064424;28;20487;-75
2022/09/03 07:11:52;;;;;;;0.85;0.75;;;;;;;;;;5050332;28;20021;-76
2022/09/03 07:14:18;;;;;;;2.35;0.95;;;;;;;;;;5057493;28;20043;-76
2022/09/03 07:16:45;;;;;;;1.17;0.80;;;;;;;;;;5061951;28;20033;-76
2022/09/03 07:19:12;;;;;;;0.98;0.70;;;;;;;;;;5051973;28;20024;-77
2022/09/03 07:21:41;;;;;;;1.13;0.80;;;;;;;;;;5065155;28;20117;-79
2022/09/03 07:24:08;;;;;;;5.18;1.08;;;;;;;;;;5064501;28;20438;-80
2022/09/03 07:26:35;;;;;;;1.10;0.77;;;;;;;;;;5067788;28;20021;-79
2022/09/03 07:29:01;;;;;;;1.73;0.82;;;;;;;;;;5040168;28;20059;-77
2022/09/03 07:31:32;;;;;;;1.15;0.70;;;;;;;;;;5064594;28;20029;-79
2022/09/03 07:33:59;;;;;;;1.87;0.97;;;;;;;;;;5053270;28;20040;-77
2022/09/03 07:36:26;;;;;;;1.00;0.90;;;;;;;;;;5053470;28;20278;-76
2022/09/03 07:38:54;;;;;;;0.70;0.70;;;;;;;;;;5052476;28;20171;-77
2022/09/03 07:41:21;;;;;;;0.80;0.70;;;;;;;;;;5057575;28;20472;-76
2022/09/03 07:43:48;;;;;;;0.73;0.73;;;;;;;;;;5053868;28;20043;-76
2022/09/03 07:46:17;;;;;;;0.80;0.65;;;;;;;;;;5066554;28;20040;-76
2022/09/03 07:48:47;;;;;;;3.80;0.80;;;;;;;;;;5063905;28;20020;-76
2022/09/03 07:51:13;;;;;;;2.15;1.08;;;;;;;;;;5052219;28;20514;-75
2022/09/03 07:53:39;;;;;;;0.93;0.70;;;;;;;;;;5055286;28;20028;-80
2022/09/03 07:56:06;;;;;;;1.05;0.90;;;;;;;;;;5062309;28;20024;-76
2022/09/03 07:58:42;;;;;;;2.25;0.73;;;;;;;;;;5059400;28;20085;-76
2022/09/03 08:01:10;;;;;;;0.60;0.60;;;;;;;;;;5056647;28;20518;-77
2022/09/03 08:03:36;;;;;;;0.90;0.65;;;;;;;;;;5061270;28;20089;-77
2022/09/03 08:06:03;;;;;;;1.15;0.90;;;;;;;;;;5061422;28;20028;-83
2022/09/03 08:08:30;;;;;;;4.03;0.90;;;;;;;;;;5057307;28;20478;-87
2022/09/03 08:11:02;;;;;;;1.30;0.73;;;;;;;;;;5061909;28;20029;-78
2022/09/03 08:13:28;;;;;;;1.02;0.82;;;;;;;;;;5060827;28;20024;-78
2022/09/03 08:15:55;;;;;;;0.98;0.80;;;;;;;;;;5059066;28;20102;-87
2022/09/03 08:18:21;;;;;;;3.08;1.52;;;;;;;;;;5051391;28;20475;-79
2022/09/03 08:20:48;;;;;;;0.63;0.63;;;;;;;;;;5053929;28;20664;-85
2022/09/03 08:23:15;;;;;;;1.38;0.77;;;;;;;;;;5067998;28;20059;-79
2022/09/03 08:25:44;;;;;;;1.27;0.90;;;;;;;;;;5053217;28;20033;-79
2022/09/03 08:28:10;;;;;;;2.42;1.00;;;;;;;;;;5049857;28;20029;-82
2022/09/03 08:30:36;;;;;;;2.50;1.70;;;;;;;;;;5051026;28;20281;-80
2022/09/03 08:33:05;;;;;;;1.00;0.90;;;;;;;;;;5067909;28;20048;-79
2022/09/03 08:35:33;;;;;;;0.98;0.98;;;;;;;;;;5058918;28;20082;-79
2022/09/03 08:38:04;;;;;;;0.88;0.82;;;;;;;;;;5056902;28;20413;-79
2022/09/03 08:40:31;;;;;;;0.63;0.63;;;;;;;;;;5056647;28;20021;-85
2022/09/03 08:42:57;;;;;;;0.65;0.65;;;;;;;;;;5051205;28;20115;-82
2022/09/03 08:45:23;;;;;;;1.48;0.90;;;;;;;;;;5062225;28;20036;-81
2022/09/03 08:47:52;;;;;;;1.08;0.75;;;;;;;;;;5055849;28;20024;-78
2022/09/03 08:50:41;;;;;;;0.73;0.70;;;;;;;;;;5052165;28;20025;-79
2022/09/03 08:53:13;;;;;;;1.08;0.88;;;;;;;;;;5060438;28;20525;-78
2022/09/03 08:55:49;;;;;;;1.25;0.73;;;;;;;;;;5063523;28;20437;-82
2022/09/03 08:58:21;;;;;;;1.48;1.00;;;;;;;;;;5061741;28;20372;-79
2022/09/03 09:01:00;;;;;;;0.88;0.80;;;;;;;;;;5053859;28;20035;-77
2022/09/03 09:03:33;;;;;;;1.20;0.80;;;;;;;;;;5058971;28;20086;-77
2022/09/03 09:06:07;;;;;;;1.45;0.75;;;;;;;;;;5063815;28;20040;-77
2022/09/03 09:08:39;;;;;;;1.10;0.90;;;;;;;;;;5047684;28;20028;-77
2022/09/03 09:11:15;;;;;;;1.63;0.85;;;;;;;;;;5056240;28;20066;-76
2022/09/03 09:13:49;;;;;;;0.70;0.70;;;;;;;;;;5049415;28;20020;-76
2022/09/03 09:16:22;;;;;;;1.10;0.73;;;;;;;;;;5052674;28;20024;-76
2022/09/03 09:18:56;;;;;;;0.70;0.70;;;;;;;;;;5054657;28;20396;-76
2022/09/03 09:21:31;;;;;;;1.23;0.88;;;;;;;;;;5065851;28;20017;-76
2022/09/03 09:24:09;;;;;;;1.15;0.80;;;;;;;;;;5066272;28;20041;-77
2022/09/03 09:26:35;;;;;;;4.75;0.90;;;;;;;;;;5059467;28;20036;-76
2022/09/03 09:29:09;;;;;;;0.70;0.63;;;;;;;;;;5049875;28;20049;-76
2022/09/03 09:31:35;;;;;;;5.18;1.02;;;;;;;;;;5047397;28;20028;-77
2022/09/03 09:34:05;;;;;;;1.02;0.60;;;;;;;;;;5047411;28;20017;-77
2022/09/03 09:36:31;;;;;;;1.13;0.75;;;;;;;;;;5051133;28;20037;-77
2022/09/03 09:39:07;;;;;;;2.90;0.55;;;;;;;;;;5050874;28;20450;-76
2022/09/03 09:41:34;;;;;;;0.60;0.60;;;;;;;;;;5062585;28;20056;-76
2022/09/03 09:44:01;;;;;;;0.60;0.60;;;;;;;;;;5067138;28;20059;-76
2022/09/03 09:46:29;;;;;;;0.82;0.70;;;;;;;;;;5067498;28;20033;-76
2022/09/03 09:48:57;;;;;;;2.15;0.77;;;;;;;;;;5054743;28;20025;-76
2022/09/03 09:51:24;;;;;;;1.25;0.70;;;;;;;;;;5054538;28;20037;-76
2022/09/03 09:54:03;;;;;;;4.43;1.05;;;;;;;;;;5067070;28;20093;-77
2022/09/03 09:56:30;;;;;;;0.57;0.57;;;;;;;;;;5057157;28;20111;-78
2022/09/03 09:59:06;;;;;;;2.60;1.30;;;;;;;;;;5060801;28;20036;-82
2022/09/03 10:01:32;;;;;;;0.55;0.55;;;;;;;;;;5062707;28;20108;-84
2022/09/03 10:03:59;;;;;;;0.57;0.57;;;;;;;;;;5051234;28;20029;-81
2022/09/03 10:09:14;;;;;;;0.70;0.63;;;;;;;;;;5052851;28;20074;-81
2022/09/03 10:11:42;;;;;;;0.50;0.50;;;;;;;;;;5055449;28;20020;-76
2022/09/03 10:14:18;;;;;;;0.60;0.60;;;;;;;;;;5065524;28;20395;-78
2022/09/03 10:16:47;;;;;;;0.65;0.60;;;;;;;;;;5054112;28;20032;-78
2022/09/03 10:19:23;;;;;;;0.70;0.60;;;;;;;;;;5061210;28;20060;-83
2022/09/03 10:22:02;;;;;;;0.73;0.73;;;;;;;;;;5067083;28;20032;-76
2022/09/03 10:24:38;;;;;;;0.80;0.80;;;;;;;;;;5053604;28;20140;-80
2022/09/03 10:27:04;;;;;;;0.60;0.60;;;;;;;;;;5060721;28;20020;-82
2022/09/03 10:29:30;;;;;;;0.70;0.70;;;;;;;;;;5058092;28;20049;-80
2022/09/03 10:32:03;;;;;;;1.02;0.70;;;;;;;;;;5056534;28;20017;-78
2022/09/03 10:34:57;;;;;;;0.85;0.70;;;;;;;;;;5067257;28;20103;-79
2022/09/03 10:37:29;;;;;;;0.73;0.52;;;;;;;;;;5064179;28;20043;-77
2022/09/03 10:40:14;;;;;;;1.23;0.50;;;;;;;;;;5071059;28;20053;-81
2022/09/03 10:42:40;;;;;;;0.77;0.77;;;;;;;;;;5057503;28;20031;-86
2022/09/03 10:45:16;;;;;;;0.98;0.73;;;;;;;;;;5057651;28;20056;-86
2022/09/03 10:48:03;;;;;;;0.73;0.70;;;;;;;;;;5066972;28;20028;-81
2022/09/03 10:50:33;;;;;;;0.82;0.80;;;;;;;;;;5041936;28;20036;-84
2022/09/03 10:53:25;;;;;;;0.75;0.63;;;;;;;;;;5065699;28;20021;-84
2022/09/03 10:56:03;;;;;;;2.28;0.60;;;;;;;;;;5052370;28;20086;-79
2022/09/03 10:58:48;;;;;;;7.00;1.23;;;;;;;;;;5059835;28;20081;-78
2022/09/03 11:01:21;;;;;;;2.10;1.05;;;;;;;;;;5044284;28;20095;-79
2022/09/03 11:04:03;;;;;;;0.60;0.60;;;;;;;;;;5053847;28;20450;-78
2022/09/03 11:06:30;;;;;;;0.77;0.70;;;;;;;;;;5038183;28;20040;-79
2022/09/03 11:09:10;;;;;;;0.65;0.65;;;;;;;;;;5058707;28;20369;-77
2022/09/03 11:11:40;;;;;;;1.52;0.70;;;;;;;;;;5058827;28;20050;-77
2022/09/03 11:14:15;;;;;;;4.60;0.80;;;;;;;;;;5061468;28;20034;-76
2022/09/03 11:16:41;;;;;;;1.17;0.90;;;;;;;;;;5062029;28;20039;-78
2022/09/03 11:19:10;;;;;;;4.82;1.02;;;;;;;;;;5059358;28;20383;-77
2022/09/03 11:21:37;;;;;;;1.08;0.82;;;;;;;;;;5055960;28;20032;-77
2022/09/03 11:24:13;;;;;;;1.40;0.77;;;;;;;;;;5059957;28;20483;-77
2022/09/03 11:26:44;;;;;;;0.70;0.70;;;;;;;;;;5063252;28;20028;-77
2022/09/03 11:29:20;;;;;;;1.48;1.00;;;;;;;;;;5062241;28;20037;-77
2022/09/03 11:31:56;;;;;;;1.55;1.02;;;;;;;;;;5059454;28;20055;-78
2022/09/03 11:34:23;;;;;;;0.80;0.80;;;;;;;;;;5059008;28;20021;-78
2022/09/03 11:36:50;;;;;;;0.65;0.65;;;;;;;;;;5068040;28;20457;-76
2022/09/03 11:39:36;;;;;;;1.17;0.73;;;;;;;;;;5059511;28;20020;-77
2022/09/03 11:42:06;;;;;;;1.70;0.90;;;;;;;;;;5055072;28;20127;-77
2022/09/03 11:45:02;;;;;;;1.70;0.80;;;;;;;;;;5062684;28;20087;-78
2022/09/03 11:47:38;;;;;;;1.75;0.70;;;;;;;;;;5034227;28;20040;-79
2022/09/03 11:50:19;;;;;;;0.70;0.70;;;;;;;;;;5059416;28;20151;-83
2022/09/03 11:52:45;;;;;;;1.08;0.80;;;;;;;;;;5053644;28;20029;-78
2022/09/03 11:55:11;;;;;;;3.42;1.77;;;;;;;;;;5053255;28;20033;-80
2022/09/03 11:57:44;;;;;;;2.97;1.00;;;;;;;;;;5061265;28;20077;-80
2022/09/03 12:00:12;;;;;;;3.70;1.05;;;;;;;;;;5059089;28;20024;-79
2022/09/03 12:02:45;;;;;;;4.80;1.20;;;;;;;;;;5059303;28;20035;-80
2022/09/03 12:05:33;;;;;;;1.85;0.80;;;;;;;;;;5058898;28;20159;-79
2022/09/03 12:08:09;;;;;;;0.50;0.50;;;;;;;;;;5057439;28;20415;-77
2022/09/03 12:10:47;;;;;;;1.20;0.90;;;;;;;;;;5058174;28;20020;-78
2022/09/03 12:13:18;;;;;;;0.95;0.82;;;;;;;;;;5059903;28;20504;-77
2022/09/03 12:16:14;;;;;;;1.42;0.80;;;;;;;;;;5059275;28;20033;-78
2022/09/03 12:18:40;;;;;;;0.70;0.70;;;;;;;;;;5054929;28;20032;-86
2022/09/03 12:21:07;;;;;;;0.70;0.70;;;;;;;;;;5053899;28;20040;-75
2022/09/03 12:23:48;;;;;;;1.20;0.52;;;;;;;;;;5058851;28;20025;-87
2022/09/03 12:26:22;;;;;;;0.98;0.70;;;;;;;;;;5056686;28;20093;-78
2022/09/03 12:28:50;;;;;;;0.70;0.60;;;;;;;;;;5053427;28;20060;-79
2022/09/03 12:31:22;;;;;;;0.80;0.70;;;;;;;;;;5063361;28;20013;-81
2022/09/03 12:33:50;;;;;;;0.60;0.60;;;;;;;;;;5050190;28;20476;-80
2022/09/03 12:36:16;;;;;;;0.70;0.70;;;;;;;;;;5059307;28;20032;-80
2022/09/03 12:38:42;;;;;;;0.90;0.80;;;;;;;;;;5057230;28;20021;-80
2022/09/03 12:41:27;;;;;;;0.65;0.65;;;;;;;;;;5057788;28;20541;-78
2022/09/03 12:44:02;;;;;;;1.00;0.90;;;;;;;;;;5056563;28;20553;-78
2022/09/03 12:46:30;;;;;;;1.98;1.35;;;;;;;;;;5051871;28;20037;-77
2022/09/03 12:49:02;;;;;;;2.40;1.33;;;;;;;;;;5048151;28;20029;-79
2022/09/03 12:51:31;;;;;;;1.45;0.77;;;;;;;;;;5057484;28;20300;-78
2022/09/03 12:53:57;;;;;;;2.28;1.13;;;;;;;;;;5059558;28;20060;-77
2022/09/03 12:56:23;;;;;;;2.40;0.85;;;;;;;;;;5067394;28;20705;-80
2022/09/03 12:59:18;;;;;;;1.02;0.70;;;;;;;;;;5054221;28;20430;-77
2022/09/03 13:01:48;;;;;;;0.70;0.70;;;;;;;;;;5053881;28;20399;-75
2022/09/03 13:04:17;;;;;;;0.80;0.60;;;;;;;;;;5060034;28;20108;-77
2022/09/03 13:06:50;;;;;;;1.10;0.82;;;;;;;;;;5060356;28;20042;-78
2022/09/03 13:09:21;;;;;;;2.08;1.15;;;;;;;;;;5058420;28;20103;-76
2022/09/03 13:11:48;;;;;;;;;;;;;;;;;;5059507;28;20025;-78
2022/09/03 13:14:16;;;;;;;1.13;0.73;;;;;;;;;;5055848;28;20010;-78
2022/09/03 13:16:45;;;;;;;0.75;0.65;;;;;;;;;;5063374;28;20029;-78
2022/09/03 13:19:30;;;;;;;0.98;0.70;;;;;;;;;;5060790;28;20108;-82
2022/09/03 13:22:08;;;;;;;0.63;0.63;;;;;;;;;;5062615;28;20487;-80
2022/09/03 13:24:53;;;;;;;0.80;0.80;;;;;;;;;;5059215;28;20509;-81
2022/09/03 13:27:32;;;;;;;0.68;0.68;;;;;;;;;;5053608;28;20036;-77
2022/09/03 13:30:04;;;;;;;1.33;0.90;;;;;;;;;;5049928;28;20604;-85
2022/09/03 13:32:39;;;;;;;0.98;0.80;;;;;;;;;;5062078;28;20699;-79
2022/09/03 13:35:10;;;;;;;0.63;0.63;;;;;;;;;;5058169;28;20479;-80
2022/09/03 13:37:43;;;;;;;0.70;0.70;;;;;;;;;;5058424;28;20029;-80
2022/09/03 13:40:16;;;;;;;0.85;0.70;;;;;;;;;;5057866;28;20025;-80
2022/09/03 13:42:45;;;;;;;2.28;1.00;;;;;;;;;;5054532;28;20363;-81
2022/09/03 13:45:20;;;;;;;2.22;1.20;;;;;;;;;;5058585;28;20042;-85
2022/09/03 13:50:48;;;;;;;0.70;0.70;;;;;;;;;;5062086;28;20047;-78
2022/09/03 13:53:16;;;;;;;0.60;0.60;;;;;;;;;;5058304;28;20021;-79
2022/09/03 13:55:46;;;;;;;1.40;1.30;;;;;;;;;;5052439;28;20081;-84
2022/09/03 13:58:23;;;;;;;2.33;1.60;;;;;;;;;;5062773;28;20029;-87
2022/09/03 14:01:03;;;;;;;111.32;58.42;;;;;;;;;;5055840;28;20077;-80
2022/09/03 14:03:33;;;;;;;64.70;36.45;;;;;;;;;;5058129;28;20025;-82
2022/09/03 14:06:11;;;;;;;140.25;70.63;;;;;;;;;;5059526;28;20039;-82
2022/09/03 14:09:01;;;;;;;59.50;35.10;;;25.30;44.40;;;;;;5062968;28;20016;-78
2022/09/03 14:11:33;;;;;;;31.10;22.00;;;25.90;44.60;;;;;;5058943;28;20027;-78
2022/09/03 14:14:39;;;;;;;68.88;34.63;;;25.50;44.60;;;;;;5057360;28;20317;-79
2022/09/03 14:17:36;;;;;;;177.15;80.38;;;32.40;37.50;;;;;;5061194;28;20111;-80
2022/09/03 14:20:09;;;;;;;70.75;30.42;;;29.30;39.90;;;;;;5064535;28;20028;-78
2022/09/03 14:22:52;;;;;;;46.63;21.17;;;27.70;41.00;;;;;;5064451;28;20035;-82
2022/09/03 14:25:23;;;;;;;27.05;14.82;;;29.00;39.40;;;;;;5057812;28;20033;-80
2022/09/03 14:27:50;;;;;;;31.05;15.52;;;27.00;42.10;;;;;;5065509;28;20479;-80
2022/09/03 14:30:15;;;;;;;81.18;41.05;;;26.10;45.00;;;;;;5062781;28;20053;-81
2022/09/03 14:32:58;;;;;;;217.65;109.95;;;25.40;45.00;;;;;;5058331;28;20390;-81
2022/09/03 14:35:52;;;;;;;20.65;11.35;;;24.80;44.80;;;;;;5057607;28;20032;-80
2022/09/03 14:38:36;;;;;;;16.17;10.63;;;24.80;46.70;;;;;;5060456;28;20115;-80
2022/09/03 14:41:36;;;;;;;6.18;4.57;;;28.00;41.50;;;;;;5063303;28;20056;-81
2022/09/03 14:44:39;;;;;;;3.30;1.70;;;27.10;41.10;;;;;;5065809;28;20043;-85
2022/09/03 14:47:23;;;;;;;5.03;3.03;;;26.80;41.70;;;;;;5051313;28;20123;-76
2022/09/03 14:50:23;;;;;;;40.65;22.67;;;32.90;35.60;;;;;;5065359;28;20024;-76
2022/09/03 14:53:49;;;;;;;17.25;10.13;;;36.10;30.90;;;;;;5056696;28;20558;-75
2022/09/03 14:56:34;;;;;;;11.73;6.97;;;39.30;28.40;;;;;;5028802;28;20052;-75
2022/09/03 14:59:47;;;;;;;6.30;3.25;;;40.00;28.00;;;;;;5061404;28;20036;-75
2022/09/03 15:02:41;;;;;;;7.88;1.60;;;34.30;30.60;;;;;;5057190;28;20125;-76
2022/09/03 15:05:39;;;;;;;3.45;1.85;;;33.10;32.80;;;;;;5028826;28;20043;-88
2022/09/03 15:08:19;;;;;;;0.82;0.80;;;31.70;34.40;;;;;;5064534;28;20028;-92